sensor_id;sensor_type;location;lat;lon;timestamp;pressure;altitude;pressure_sealevel;temperature;humidity
67654;BME280;54791;52.364;4.648;2022-12-07T00:01:47;101902.97;;;3.91;100.00
67654;BME280;54791;52.364;4.648;2022-12-07T00:04:16;101904.69;;;3.92;100.00
67654;BME280;54791;52.364;4.648;2022-12-07T00:06:45;101915.25;;;3.98;100.00
67654;BME280;54791;52.364;4.648;2022-12-07T00:09:16;101903.88;;;3.96;100.00
67654;BME280;54791;52.364;4.648;2022-12-07T00:11:44;101910.00;;;3.98;100.00
67654;BME280;54791;52.364;4.648;2022-12-07T00:14:12;101909.94;;;3.89;100.00
67654;BME280;54791;52.364;4.648;2022-12-07T00:16:38;101901.25;;;3.96;100.00
67654;BME280;54791;52.364;4.648;2022-12-07T00:19:04;101906.56;;;4.07;100.00
67654;BME280;54791;52.364;4.648;2022-12-07T00:21:35;101897.00;;;4.21;100.00
67654;BME280;54791;52.364;4.648;2022-12-07T00:24:02;101904.00;;;4.25;100.00
67654;BME280;54791;52.364;4.648;2022-12-07T00:26:30;101901.38;;;4.25;100.00
67654;BME280;54791;52.364;4.648;2022-12-07T00:28:58;101903.16;;;4.29;100.00
67654;BME280;54791;52.364;4.648;2022-12-07T00:31:27;101897.03;;;4.31;100.00
67654;BME280;54791;52.364;4.648;2022-12-07T00:33:53;101892.63;;;4.25;100.00
67654;BME280;54791;52.364;4.648;2022-12-07T00:36:21;101896.16;;;4.35;100.00
67654;BME280;54791;52.364;4.648;2022-12-07T00:38:47;101890.06;;;4.43;100.00
67654;BME280;54791;52.364;4.648;2022-12-07T00:41:19;101883.13;;;4.52;100.00
67654;BME280;54791;52.364;4.648;2022-12-07T00:43:46;101880.50;;;4.53;100.00
67654;BME280;54791;52.364;4.648;2022-12-07T00:46:13;101876.09;;;4.54;100.00
67654;BME280;54791;52.364;4.648;2022-12-07T00:48:40;101874.34;;;4.51;100.00
67654;BME280;54791;52.364;4.648;2022-12-07T00:51:06;101878.66;;;4.29;100.00
67654;BME280;54791;52.364;4.648;2022-12-07T00:53:35;101886.50;;;4.21;100.00
67654;BME280;54791;52.364;4.648;2022-12-07T00:56:06;101887.34;;;4.22;100.00
67654;BME280;54791;52.364;4.648;2022-12-07T00:58:32;101885.59;;;4.18;100.00
67654;BME280;54791;52.364;4.648;2022-12-07T01:01:01;101889.03;;;4.09;100.00
67654;BME280;54791;52.364;4.648;2022-12-07T01:03:27;101883.81;;;4.12;100.00
67654;BME280;54791;52.364;4.648;2022-12-07T01:05:54;101892.59;;;4.17;100.00
67654;BME280;54791;52.364;4.648;2022-12-07T01:08:21;101896.16;;;4.30;100.00
67654;BME280;54791;52.364;4.648;2022-12-07T01:10:48;101901.44;;;4.39;100.00
67654;BME280;54791;52.364;4.648;2022-12-07T01:13:15;101900.63;;;4.57;100.00
67654;BME280;54791;52.364;4.648;2022-12-07T01:15:42;101892.78;;;4.68;100.00
67654;BME280;54791;52.364;4.648;2022-12-07T01:18:08;101903.28;;;4.68;100.00
67654;BME280;54791;52.364;4.648;2022-12-07T01:20:33;101900.66;;;4.67;100.00
67654;BME280;54791;52.364;4.648;2022-12-07T01:22:59;101893.66;;;4.67;100.00
67654;BME280;54791;52.364;4.648;2022-12-07T01:25:25;101900.69;;;4.73;100.00
67654;BME280;54791;52.364;4.648;2022-12-07T01:27:50;101885.78;;;4.70;100.00
67654;BME280;54791;52.364;4.648;2022-12-07T01:30:16;101877.91;;;4.75;100.00
67654;BME280;54791;52.364;4.648;2022-12-07T01:32:42;101877.91;;;4.70;100.00
67654;BME280;54791;52.364;4.648;2022-12-07T01:35:07;101874.41;;;4.62;100.00
67654;BME280;54791;52.364;4.648;2022-12-07T01:37:38;101884.00;;;4.55;100.00
67654;BME280;54791;52.364;4.648;2022-12-07T01:40:07;101880.50;;;4.52;100.00
67654;BME280;54791;52.364;4.648;2022-12-07T01:42:34;101880.47;;;4.45;100.00
67654;BME280;54791;52.364;4.648;2022-12-07T01:45:41;101873.47;;;4.52;100.00
67654;BME280;54791;52.364;4.648;2022-12-07T01:48:05;101883.13;;;4.56;100.00
67654;BME280;54791;52.364;4.648;2022-12-07T01:50:33;101884.84;;;4.50;100.00
67654;BME280;54791;52.364;4.648;2022-12-07T01:53:02;101883.97;;;4.41;100.00
67654;BME280;54791;52.364;4.648;2022-12-07T01:55:28;101869.94;;;4.38;100.00
67654;BME280;54791;52.364;4.648;2022-12-07T01:57:55;101870.81;;;4.35;100.00
67654;BME280;54791;52.364;4.648;2022-12-07T02:00:21;101870.81;;;4.40;100.00
67654;BME280;54791;52.364;4.648;2022-12-07T02:02:55;101862.06;;;4.38;100.00
67654;BME280;54791;52.364;4.648;2022-12-07T02:05:24;101865.50;;;4.23;100.00
67654;BME280;54791;52.364;4.648;2022-12-07T02:07:51;101868.94;;;4.11;100.00
67654;BME280;54791;52.364;4.648;2022-12-07T02:10:24;101861.97;;;4.15;100.00
67654;BME280;54791;52.364;4.648;2022-12-07T02:12:55;101866.34;;;4.16;100.00
67654;BME280;54791;52.364;4.648;2022-12-07T02:15:25;101868.06;;;4.13;100.00
67654;BME280;54791;52.364;4.648;2022-12-07T02:18:16;101862.91;;;4.31;100.00
67654;BME280;54791;52.364;4.648;2022-12-07T02:20:59;101861.19;;;4.45;100.00
67654;BME280;54791;52.364;4.648;2022-12-07T02:23:41;101859.47;;;4.47;100.00
67654;BME280;54791;52.364;4.648;2022-12-07T02:26:18;101845.47;;;4.50;100.00
67654;BME280;54791;52.364;4.648;2022-12-07T02:29:00;101853.38;;;4.54;100.00
67654;BME280;54791;52.364;4.648;2022-12-07T02:31:31;101844.59;;;4.52;100.00
67654;BME280;54791;52.364;4.648;2022-12-07T02:34:24;101844.59;;;4.49;100.00
67654;BME280;54791;52.364;4.648;2022-12-07T02:36:57;101845.47;;;4.48;100.00
67654;BME280;54791;52.364;4.648;2022-12-07T02:39:48;101847.19;;;4.41;100.00
67654;BME280;54791;52.364;4.648;2022-12-07T02:42:17;101841.06;;;4.47;100.00
67654;BME280;54791;52.364;4.648;2022-12-07T02:44:46;101839.31;;;4.48;100.00
67654;BME280;54791;52.364;4.648;2022-12-07T02:47:15;101838.44;;;4.44;100.00
67654;BME280;54791;52.364;4.648;2022-12-07T02:49:42;101834.03;;;4.37;100.00
67654;BME280;54791;52.364;4.648;2022-12-07T02:52:08;101832.31;;;4.40;100.00
67654;BME280;54791;52.364;4.648;2022-12-07T02:54:34;101833.16;;;4.42;100.00
67654;BME280;54791;52.364;4.648;2022-12-07T03:00:17;101840.22;;;4.47;100.00
67654;BME280;54791;52.364;4.648;2022-12-07T03:03:04;101833.22;;;4.55;100.00
67654;BME280;54791;52.364;4.648;2022-12-07T03:08:56;101835.88;;;4.73;100.00
67654;BME280;54791;52.364;4.648;2022-12-07T03:11:09;101834.13;;;4.77;100.00
67654;BME280;54791;52.364;4.648;2022-12-07T03:13:49;101841.13;;;4.73;100.00
67654;BME280;54791;52.364;4.648;2022-12-07T03:16:21;101836.75;;;4.78;100.00
67654;BME280;54791;52.364;4.648;2022-12-07T03:19:13;101840.28;;;4.87;100.00
67654;BME280;54791;52.364;4.648;2022-12-07T03:21:44;101835.03;;;4.88;100.00
67654;BME280;54791;52.364;4.648;2022-12-07T03:24:17;101828.91;;;4.89;100.00
67654;BME280;54791;52.364;4.648;2022-12-07T03:26:49;101833.28;;;4.95;100.00
67654;BME280;54791;52.364;4.648;2022-12-07T03:29:22;101835.00;;;4.91;100.00
67654;BME280;54791;52.364;4.648;2022-12-07T03:31:58;101833.25;;;4.89;100.00
67654;BME280;54791;52.364;4.648;2022-12-07T03:34:34;101837.63;;;4.85;100.00
67654;BME280;54791;52.364;4.648;2022-12-07T03:37:17;101828.88;;;4.88;100.00
67654;BME280;54791;52.364;4.648;2022-12-07T03:42:25;101831.50;;;4.83;100.00
67654;BME280;54791;52.364;4.648;2022-12-07T03:44:51;101822.75;;;4.81;100.00
67654;BME280;54791;52.364;4.648;2022-12-07T03:47:31;101828.88;;;4.77;100.00
67654;BME280;54791;52.364;4.648;2022-12-07T03:50:18;101823.59;;;4.80;100.00
67654;BME280;54791;52.364;4.648;2022-12-07T03:53:05;101826.25;;;4.88;100.00
67654;BME280;54791;52.364;4.648;2022-12-07T03:55:37;101817.50;;;4.92;100.00
67654;BME280;54791;52.364;4.648;2022-12-07T03:58:09;101821.88;;;4.93;100.00
67654;BME280;54791;52.364;4.648;2022-12-07T04:00:36;101818.38;;;4.91;100.00
67654;BME280;54791;52.364;4.648;2022-12-07T04:03:02;101813.97;;;4.93;100.00
67654;BME280;54791;52.364;4.648;2022-12-07T04:05:28;101813.13;;;4.94;100.00
67654;BME280;54791;52.364;4.648;2022-12-07T04:07:54;101815.75;;;5.08;100.00
67654;BME280;54791;52.364;4.648;2022-12-07T04:10:20;101813.13;;;5.20;100.00
67654;BME280;54791;52.364;4.648;2022-12-07T04:12:45;101808.75;;;5.21;100.00
67654;BME280;54791;52.364;4.648;2022-12-07T04:15:12;101802.59;;;5.11;100.00
67654;BME280;54791;52.364;4.648;2022-12-07T04:17:38;101796.47;;;5.10;100.00
67654;BME280;54791;52.364;4.648;2022-12-07T04:20:10;101802.59;;;5.09;100.00
67654;BME280;54791;52.364;4.648;2022-12-07T04:22:37;101800.00;;;5.05;100.00
67654;BME280;54791;52.364;4.648;2022-12-07T04:25:04;101800.84;;;5.07;100.00
67654;BME280;54791;52.364;4.648;2022-12-07T04:27:31;101803.50;;;5.04;100.00
67654;BME280;54791;52.364;4.648;2022-12-07T04:29:58;101805.22;;;5.11;100.00
67654;BME280;54791;52.364;4.648;2022-12-07T04:32:30;101808.75;;;5.13;100.00
67654;BME280;54791;52.364;4.648;2022-12-07T04:34:57;101806.97;;;5.18;100.00
67654;BME280;54791;52.364;4.648;2022-12-07T04:37:24;101805.22;;;5.19;100.00
67654;BME280;54791;52.364;4.648;2022-12-07T04:39:51;101799.09;;;5.20;100.00
67654;BME280;54791;52.364;4.648;2022-12-07T04:42:18;101794.72;;;5.20;100.00
67654;BME280;54791;52.364;4.648;2022-12-07T04:44:44;101800.84;;;5.13;100.00
67654;BME280;54791;52.364;4.648;2022-12-07T04:47:14;101796.47;;;5.09;100.00
67654;BME280;54791;52.364;4.648;2022-12-07T04:49:42;101795.63;;;5.10;100.00
67654;BME280;54791;52.364;4.648;2022-12-07T04:52:09;101805.25;;;5.08;100.00
67654;BME280;54791;52.364;4.648;2022-12-07T04:54:35;101821.00;;;5.08;100.00
67654;BME280;54791;52.364;4.648;2022-12-07T04:57:02;101819.25;;;5.13;100.00
67654;BME280;54791;52.364;4.648;2022-12-07T04:59:34;101828.00;;;5.04;100.00
67654;BME280;54791;52.364;4.648;2022-12-07T05:02:01;101811.38;;;5.04;100.00
67654;BME280;54791;52.364;4.648;2022-12-07T05:04:27;101802.59;;;4.92;100.00
67654;BME280;54791;52.364;4.648;2022-12-07T05:06:54;101803.47;;;4.93;100.00
67654;BME280;54791;52.364;4.648;2022-12-07T05:09:20;101802.63;;;4.91;100.00
67654;BME280;54791;52.364;4.648;2022-12-07T05:11:47;101800.00;;;4.89;100.00
67654;BME280;54791;52.364;4.648;2022-12-07T05:14:20;101796.47;;;4.93;100.00
67654;BME280;54791;52.364;4.648;2022-12-07T05:16:48;101799.09;;;4.87;100.00
67654;BME280;54791;52.364;4.648;2022-12-07T05:19:16;101791.19;;;4.83;100.00
67654;BME280;54791;52.364;4.648;2022-12-07T05:21:43;101796.47;;;4.72;100.00
67654;BME280;54791;52.364;4.648;2022-12-07T05:24:15;101793.81;;;4.66;100.00
67654;BME280;54791;52.364;4.648;2022-12-07T05:26:53;101794.69;;;4.58;100.00
67654;BME280;54791;52.364;4.648;2022-12-07T05:29:20;101786.81;;;4.54;100.00
67654;BME280;54791;52.364;4.648;2022-12-07T05:31:46;101783.28;;;4.49;100.00
67654;BME280;54791;52.364;4.648;2022-12-07T05:34:14;101798.16;;;4.42;100.00
67654;BME280;54791;52.364;4.648;2022-12-07T05:36:47;101795.50;;;4.36;100.00
67654;BME280;54791;52.364;4.648;2022-12-07T05:39:13;101799.84;;;4.24;100.00
67654;BME280;54791;52.364;4.648;2022-12-07T05:41:39;101796.38;;;4.21;100.00
67654;BME280;54791;52.364;4.648;2022-12-07T05:44:25;101792.84;;;4.17;100.00
67654;BME280;54791;52.364;4.648;2022-12-07T05:46:52;101795.44;;;4.08;100.00
67654;BME280;54791;52.364;4.648;2022-12-07T05:49:18;101789.34;;;4.13;100.00
67654;BME280;54791;52.364;4.648;2022-12-07T05:51:45;101791.13;;;4.24;100.00
67654;BME280;54791;52.364;4.648;2022-12-07T05:54:11;101791.06;;;4.05;100.00
67654;BME280;54791;52.364;4.648;2022-12-07T05:56:38;101785.81;;;4.10;100.00
67654;BME280;54791;52.364;4.648;2022-12-07T05:59:05;101789.34;;;4.13;100.00
67654;BME280;54791;52.364;4.648;2022-12-07T06:02:02;101774.47;;;4.20;100.00
67654;BME280;54791;52.364;4.648;2022-12-07T06:04:34;101772.75;;;4.24;100.00
67654;BME280;54791;52.364;4.648;2022-12-07T06:07:01;101786.78;;;4.35;100.00
67654;BME280;54791;52.364;4.648;2022-12-07T06:09:29;101786.75;;;4.31;100.00
67654;BME280;54791;52.364;4.648;2022-12-07T06:11:56;101778.00;;;4.25;100.00
67654;BME280;54791;52.364;4.648;2022-12-07T06:14:42;101785.84;;;4.18;100.00
67654;BME280;54791;52.364;4.648;2022-12-07T06:17:10;101784.97;;;4.16;100.00
67654;BME280;54791;52.364;4.648;2022-12-07T06:19:38;101792.78;;;4.06;100.00
67654;BME280;54791;52.364;4.648;2022-12-07T06:22:08;101794.53;;;4.01;100.00
67654;BME280;54791;52.364;4.648;2022-12-07T06:24:36;101798.03;;;4.00;100.00
67654;BME280;54791;52.364;4.648;2022-12-07T06:27:04;101796.28;;;4.04;100.00
67654;BME280;54791;52.364;4.648;2022-12-07T06:29:32;101798.88;;;3.93;100.00
67654;BME280;54791;52.364;4.648;2022-12-07T06:32:04;101801.53;;;4.01;100.00
67654;BME280;54791;52.364;4.648;2022-12-07T06:34:31;101793.66;;;3.99;100.00
67654;BME280;54791;52.364;4.648;2022-12-07T06:36:58;101796.31;;;4.05;100.00
67654;BME280;54791;52.364;4.648;2022-12-07T06:39:27;101798.91;;;4.01;100.00
67654;BME280;54791;52.364;4.648;2022-12-07T06:41:54;101795.38;;;3.92;100.00
67654;BME280;54791;52.364;4.648;2022-12-07T06:44:22;101804.09;;;3.84;100.00
67654;BME280;54791;52.364;4.648;2022-12-07T06:46:49;101793.56;;;3.77;100.00
67654;BME280;54791;52.364;4.648;2022-12-07T06:49:18;101797.94;;;3.75;100.00
67654;BME280;54791;52.364;4.648;2022-12-07T06:51:44;101806.63;;;3.71;100.00
67654;BME280;54791;52.364;4.648;2022-12-07T06:54:12;101803.09;;;3.63;100.00
67654;BME280;54791;52.364;4.648;2022-12-07T06:56:39;101802.25;;;3.62;100.00
67654;BME280;54791;52.364;4.648;2022-12-07T06:59:15;101804.78;;;3.53;100.00
67654;BME280;54791;52.364;4.648;2022-12-07T07:01:41;101808.25;;;3.46;100.00
67654;BME280;54791;52.364;4.648;2022-12-07T07:04:11;101804.69;;;3.38;100.00
67654;BME280;54791;52.364;4.648;2022-12-07T07:06:46;101809.06;;;3.34;100.00
67654;BME280;54791;52.364;4.648;2022-12-07T07:09:13;101805.59;;;3.40;100.00
67654;BME280;54791;52.364;4.648;2022-12-07T07:11:45;101807.28;;;3.30;100.00
67654;BME280;54791;52.364;4.648;2022-12-07T07:14:17;101808.94;;;3.22;100.00
67654;BME280;54791;52.364;4.648;2022-12-07T07:16:44;101801.94;;;3.21;100.00
67654;BME280;54791;52.364;4.648;2022-12-07T07:19:11;101799.38;;;3.27;100.00
67654;BME280;54791;52.364;4.648;2022-12-07T07:21:37;101795.91;;;3.31;100.00
67654;BME280;54791;52.364;4.648;2022-12-07T07:24:03;101800.28;;;3.29;100.00
67654;BME280;54791;52.364;4.648;2022-12-07T07:26:35;101794.94;;;3.18;100.00
67654;BME280;54791;52.364;4.648;2022-12-07T07:29:01;101801.09;;;3.23;100.00
67654;BME280;54791;52.364;4.648;2022-12-07T07:31:27;101818.63;;;3.29;100.00
67654;BME280;54791;52.364;4.648;2022-12-07T07:33:53;101816.22;;;3.60;100.00
67654;BME280;54791;52.364;4.648;2022-12-07T07:36:25;101817.28;;;3.99;100.00
67654;BME280;54791;52.364;4.648;2022-12-07T07:38:51;101812.13;;;4.21;100.00
67654;BME280;54791;52.364;4.648;2022-12-07T07:41:17;101814.78;;;4.39;100.00
67654;BME280;54791;52.364;4.648;2022-12-07T07:43:43;101810.44;;;4.46;100.00
67654;BME280;54791;52.364;4.648;2022-12-07T07:46:10;101803.41;;;4.43;100.00
67654;BME280;54791;52.364;4.648;2022-12-07T07:48:37;101798.13;;;4.37;100.00
67654;BME280;54791;52.364;4.648;2022-12-07T07:51:07;101801.69;;;4.44;100.00
67654;BME280;54791;52.364;4.648;2022-12-07T07:53:40;101804.31;;;4.53;100.00
67654;BME280;54791;52.364;4.648;2022-12-07T07:56:06;101802.56;;;4.52;100.00
67654;BME280;54791;52.364;4.648;2022-12-07T07:58:32;101806.09;;;4.56;100.00
67654;BME280;54791;52.364;4.648;2022-12-07T08:01:06;101799.06;;;4.58;100.00
67654;BME280;54791;52.364;4.648;2022-12-07T08:03:33;101807.81;;;4.55;100.00
67654;BME280;54791;52.364;4.648;2022-12-07T08:05:59;101799.06;;;4.52;100.00
67654;BME280;54791;52.364;4.648;2022-12-07T08:08:25;101794.69;;;4.51;100.00
67654;BME280;54791;52.364;4.648;2022-12-07T08:10:51;101797.28;;;4.43;100.00
67654;BME280;54791;52.364;4.648;2022-12-07T08:13:17;101806.94;;;4.44;100.00
67654;BME280;54791;52.364;4.648;2022-12-07T08:15:48;101799.88;;;4.32;100.00
67654;BME280;54791;52.364;4.648;2022-12-07T08:18:15;101806.03;;;4.34;100.00
67654;BME280;54791;52.364;4.648;2022-12-07T08:20:41;101820.94;;;4.41;100.00
67654;BME280;54791;52.364;4.648;2022-12-07T08:23:09;101820.91;;;4.37;100.00
67654;BME280;54791;52.364;4.648;2022-12-07T08:25:36;101820.91;;;4.34;100.00
67654;BME280;54791;52.364;4.648;2022-12-07T08:28:03;101818.28;;;4.38;100.00
67654;BME280;54791;52.364;4.648;2022-12-07T08:30:35;101826.16;;;4.40;100.00
67654;BME280;54791;52.364;4.648;2022-12-07T08:33:01;101829.69;;;4.50;100.00
67654;BME280;54791;52.364;4.648;2022-12-07T08:35:27;101824.44;;;4.48;100.00
67654;BME280;54791;52.364;4.648;2022-12-07T08:37:54;101827.03;;;4.36;100.00
67654;BME280;54791;52.364;4.648;2022-12-07T08:40:20;101820.03;;;4.38;100.00
67654;BME280;54791;52.364;4.648;2022-12-07T08:42:49;101814.78;;;4.38;100.00
67654;BME280;54791;52.364;4.648;2022-12-07T08:45:17;101819.13;;;4.29;100.00
67654;BME280;54791;52.364;4.648;2022-12-07T08:50:13;101813.84;;;4.22;100.00
67654;BME280;54791;52.364;4.648;2022-12-07T08:52:48;101813.88;;;4.28;100.00
67654;BME280;54791;52.364;4.648;2022-12-07T08:55:15;101817.38;;;4.24;100.00
67654;BME280;54791;52.364;4.648;2022-12-07T08:57:45;101809.50;;;4.22;100.00
67654;BME280;54791;52.364;4.648;2022-12-07T09:00:13;101814.75;;;4.25;100.00
67654;BME280;54791;52.364;4.648;2022-12-07T09:02:40;101804.22;;;4.19;100.00
67654;BME280;54791;52.364;4.648;2022-12-07T09:05:07;101804.38;;;5.00;100.00
67654;BME280;54791;52.364;4.648;2022-12-07T09:07:34;101807.84;;;4.94;100.00
67654;BME280;54791;52.364;4.648;2022-12-07T09:10:00;101807.81;;;4.55;100.00
67654;BME280;54791;52.364;4.648;2022-12-07T09:12:27;101816.50;;;4.23;100.00
67654;BME280;54791;52.364;4.648;2022-12-07T09:14:54;101810.31;;;4.17;100.00
67654;BME280;54791;52.364;4.648;2022-12-07T09:17:20;101805.13;;;4.26;100.00
67654;BME280;54791;52.364;4.648;2022-12-07T09:19:47;101799.88;;;4.29;100.00
67654;BME280;54791;52.364;4.648;2022-12-07T09:22:13;101801.63;;;4.32;100.00
67654;BME280;54791;52.364;4.648;2022-12-07T09:24:39;101804.31;;;4.45;100.00
67654;BME280;54791;52.364;4.648;2022-12-07T09:27:06;101810.47;;;4.57;100.00
67654;BME280;54791;52.364;4.648;2022-12-07T09:29:32;101812.19;;;4.55;100.00
67654;BME280;54791;52.364;4.648;2022-12-07T09:31:58;101810.47;;;4.60;100.00
67654;BME280;54791;52.364;4.648;2022-12-07T09:34:25;101815.72;;;4.72;100.00
67654;BME280;54791;52.364;4.648;2022-12-07T09:36:52;101803.47;;;4.71;100.00
67654;BME280;54791;52.364;4.648;2022-12-07T09:39:18;101799.09;;;4.79;100.00
67654;BME280;54791;52.364;4.648;2022-12-07T09:41:44;101798.22;;;4.84;100.00
67654;BME280;54791;52.364;4.648;2022-12-07T09:44:14;101808.72;;;4.74;100.00
67654;BME280;54791;52.364;4.648;2022-12-07T09:46:45;101803.44;;;4.70;100.00
67654;BME280;54791;52.364;4.648;2022-12-07T09:49:16;101809.59;;;4.66;100.00
67654;BME280;54791;52.364;4.648;2022-12-07T09:51:44;101816.59;;;4.70;100.00
67654;BME280;54791;52.364;4.648;2022-12-07T09:54:20;101806.97;;;4.73;100.00
67654;BME280;54791;52.364;4.648;2022-12-07T09:56:51;101814.88;;;4.84;100.00
67654;BME280;54791;52.364;4.648;2022-12-07T09:59:18;101806.97;;;4.90;100.00
67654;BME280;54791;52.364;4.648;2022-12-07T10:01:48;101811.38;;;4.90;100.00
67654;BME280;54791;52.364;4.648;2022-12-07T10:04:18;101811.34;;;5.01;100.00
67654;BME280;54791;52.364;4.648;2022-12-07T10:06:47;101807.00;;;5.00;100.00
67654;BME280;54791;52.364;4.648;2022-12-07T10:09:16;101798.19;;;5.24;100.00
67654;BME280;54791;52.364;4.648;2022-12-07T10:12:04;101804.34;;;5.32;100.00
67654;BME280;54791;52.364;4.648;2022-12-07T10:14:34;101798.22;;;5.22;100.00
67654;BME280;54791;52.364;4.648;2022-12-07T10:17:01;101793.81;;;5.31;100.00
67654;BME280;54791;52.364;4.648;2022-12-07T10:19:37;101791.16;;;5.38;100.00
67654;BME280;54791;52.364;4.648;2022-12-07T10:22:16;101793.84;;;5.24;100.00
67654;BME280;54791;52.364;4.648;2022-12-07T10:24:46;101786.84;;;5.20;100.00
67654;BME280;54791;52.364;4.648;2022-12-07T10:27:29;101789.44;;;5.25;100.00
67654;BME280;54791;52.364;4.648;2022-12-07T10:30:03;101781.59;;;5.20;100.00
67654;BME280;54791;52.364;4.648;2022-12-07T10:32:34;101781.56;;;5.11;100.00
67654;BME280;54791;52.364;4.648;2022-12-07T10:35:22;101772.81;;;5.09;100.00
67654;BME280;54791;52.364;4.648;2022-12-07T10:37:50;101776.34;;;5.05;100.00
67654;BME280;54791;52.364;4.648;2022-12-07T10:40:36;101767.56;;;5.09;100.00
67654;BME280;54791;52.364;4.648;2022-12-07T10:46:52;101770.16;;;5.20;100.00
67654;BME280;54791;52.364;4.648;2022-12-07T10:51:40;101770.16;;;5.20;100.00
67654;BME280;54791;52.364;4.648;2022-12-07T11:00:06;101757.91;;;5.22;100.00
67654;BME280;54791;52.364;4.648;2022-12-07T11:05:23;101758.63;;;5.75;100.00
67654;BME280;54791;52.364;4.648;2022-12-07T11:11:13;101761.09;;;6.18;100.00
67654;BME280;54791;52.364;4.648;2022-12-07T11:21:40;101735.03;;;5.53;100.00
67654;BME280;54791;52.364;4.648;2022-12-07T11:24:57;101733.25;;;5.54;100.00
67654;BME280;54791;52.364;4.648;2022-12-07T11:30:23;101721.81;;;5.73;100.00
67654;BME280;54791;52.364;4.648;2022-12-07T11:33:17;101721.78;;;5.81;100.00
67654;BME280;54791;52.364;4.648;2022-12-07T11:36:16;101719.06;;;6.01;100.00
67654;BME280;54791;52.364;4.648;2022-12-07T11:38:53;101719.06;;;5.92;100.00
67654;BME280;54791;52.364;4.648;2022-12-07T11:41:43;101714.72;;;5.83;100.00
67654;BME280;54791;52.364;4.648;2022-12-07T11:46:47;101702.31;;;6.16;100.00
67654;BME280;54791;52.364;4.648;2022-12-07T11:50:21;101702.28;;;6.15;100.00
67654;BME280;54791;52.364;4.648;2022-12-07T11:52:47;101690.03;;;6.14;100.00
67654;BME280;54791;52.364;4.648;2022-12-07T11:55:26;101690.81;;;6.23;100.00
67654;BME280;54791;52.364;4.648;2022-12-07T11:58:05;101686.41;;;6.27;100.00
67654;BME280;54791;52.364;4.648;2022-12-07T12:00:38;101694.19;;;6.44;100.00
67654;BME280;54791;52.364;4.648;2022-12-07T12:03:13;101693.28;;;6.48;100.00
67654;BME280;54791;52.364;4.648;2022-12-07T12:05:42;101689.59;;;6.68;100.00
67654;BME280;54791;52.364;4.648;2022-12-07T12:08:29;101687.75;;;6.79;100.00
67654;BME280;54791;52.364;4.648;2022-12-07T12:14:49;101682.88;;;7.24;100.00
67654;BME280;54791;52.364;4.648;2022-12-07T12:16:55;101681.44;;;6.96;100.00
67654;BME280;54791;52.364;4.648;2022-12-07T12:19:41;101699.41;;;6.52;100.00
67654;BME280;54791;52.364;4.648;2022-12-07T12:22:16;101710.28;;;5.96;100.00
67654;BME280;54791;52.364;4.648;2022-12-07T12:24:47;101698.19;;;5.58;100.00
67654;BME280;54791;52.364;4.648;2022-12-07T12:29:55;101689.56;;;5.09;100.00
67654;BME280;54791;52.364;4.648;2022-12-07T12:35:32;101676.44;;;5.08;100.00
67654;BME280;54791;52.364;4.648;2022-12-07T12:41:05;101676.41;;;5.09;100.00
67654;BME280;54791;52.364;4.648;2022-12-07T12:43:43;101677.31;;;5.11;100.00
67654;BME280;54791;52.364;4.648;2022-12-07T12:51:49;101671.06;;;5.45;100.00
67654;BME280;54791;52.364;4.648;2022-12-07T12:54:29;101668.34;;;5.57;100.00
67654;BME280;54791;52.364;4.648;2022-12-07T12:57:24;101657.03;;;5.43;100.00
67654;BME280;54791;52.364;4.648;2022-12-07T13:02:31;101645.69;;;5.30;100.00
67654;BME280;54791;52.364;4.648;2022-12-07T13:18:37;101620.81;;;5.90;100.00
67654;BME280;54791;52.364;4.648;2022-12-07T13:23:37;101612.25;;;5.52;100.00
67654;BME280;54791;52.364;4.648;2022-12-07T13:26:15;101610.53;;;5.47;100.00
67654;BME280;54791;52.364;4.648;2022-12-07T13:31:50;101606.16;;;5.45;100.00
67654;BME280;54791;52.364;4.648;2022-12-07T13:34:31;101600.00;;;5.53;100.00
67654;BME280;54791;52.364;4.648;2022-12-07T13:37:01;101597.28;;;5.64;100.00
67654;BME280;54791;52.364;4.648;2022-12-07T13:39:32;101597.25;;;5.67;100.00
67654;BME280;54791;52.364;4.648;2022-12-07T13:42:11;101588.50;;;5.71;100.00
67654;BME280;54791;52.364;4.648;2022-12-07T13:44:43;101589.25;;;5.88;100.00
67654;BME280;54791;52.364;4.648;2022-12-07T13:47:34;101584.78;;;6.03;100.00
67654;BME280;54791;52.364;4.648;2022-12-07T13:50:31;101583.09;;;5.89;100.00
67654;BME280;54791;52.364;4.648;2022-12-07T13:53:11;101588.28;;;6.02;100.00
67654;BME280;54791;52.364;4.648;2022-12-07T13:55:45;101583.00;;;6.05;100.00
67654;BME280;54791;52.364;4.648;2022-12-07T13:58:13;101580.31;;;6.13;100.00
67654;BME280;54791;52.364;4.648;2022-12-07T14:00:41;101577.63;;;6.20;100.00
67654;BME280;54791;52.364;4.648;2022-12-07T14:03:23;101573.34;;;6.05;100.00
67654;BME280;54791;52.364;4.648;2022-12-07T14:08:44;101580.50;;;5.86;100.00
67654;BME280;54791;52.364;4.648;2022-12-07T14:11:15;101570.78;;;5.94;100.00
67654;BME280;54791;52.364;4.648;2022-12-07T14:18:55;101572.63;;;5.77;100.00
67654;BME280;54791;52.364;4.648;2022-12-07T14:21:25;101572.72;;;5.71;100.00
67654;BME280;54791;52.364;4.648;2022-12-07T14:24:15;101568.34;;;5.64;100.00
67654;BME280;54791;52.364;4.648;2022-12-07T14:26:42;101564.84;;;5.61;100.00
67654;BME280;54791;52.364;4.648;2022-12-07T14:29:31;101562.22;;;5.60;100.00
67654;BME280;54791;52.364;4.648;2022-12-07T14:32:29;101562.16;;;5.72;100.00
67654;BME280;54791;52.364;4.648;2022-12-07T14:35:08;101562.13;;;5.75;100.00
67654;BME280;54791;52.364;4.648;2022-12-07T14:37:42;101554.34;;;5.63;100.00
67654;BME280;54791;52.364;4.648;2022-12-07T14:40:13;101559.63;;;5.58;100.00
67654;BME280;54791;52.364;4.648;2022-12-07T14:42:41;101556.13;;;5.58;100.00